Time;durP1;ratioP1;P1;durP2;ratioP2;P2;SDS_P1;SDS_P2;PMS_P1;PMS_P2;Temp;Humidity;BMP_temperature;BMP_pressure;BME280_temperature;BME280_humidity;BME280_pressure;Samples;Min_cycle;Max_cycle;Signal;HPM_P1;HPM_P2
2022/12/28 00:01:58;;;;;;;;;;;;;;;6.96;100.00;99593.16;5075355;28;19931;-44
2022/12/28 00:04:23;;;;;;;;;;;;;;;6.65;100.00;99562.66;5072214;28;19931;-44
2022/12/28 00:06:49;;;;;;;;;;;;;;;6.82;100.00;99579.59;5072281;28;20258;-44
2022/12/28 00:09:14;;;;;;;;;;;;;;;7.24;100.00;99572.44;5072549;28;20030;-44
2022/12/28 00:11:39;;;;;;;;;;;;;;;6.49;100.00;99533.75;5072213;28;20300;-44
2022/12/28 00:14:05;;;;;;;;;;;;;;;6.82;100.00;99539.50;5065307;28;20809;-44
2022/12/28 00:16:34;;;;;;;;;;;;;;;6.78;100.00;99549.78;5075405;28;20024;-44
2022/12/28 00:19:00;;;;;;;;;;;;;;;6.39;100.00;99508.28;5070852;28;19935;-44
2022/12/28 00:21:25;;;;;;;;;;;;;;;6.62;100.00;99536.25;5073461;28;19912;-44
2022/12/28 00:23:51;;;;;;;;;;;;;;;6.71;100.00;99536.19;5066194;28;19923;-43
2022/12/28 00:26:16;;;;;;;;;;;;;;;6.75;100.00;99526.75;5074428;28;19989;-44
2022/12/28 00:28:43;;;;;;;;;;;;;;;6.69;100.00;99533.63;5069344;28;19955;-44
2022/12/28 00:31:08;;;;;;;;;;;;;;;6.65;100.00;99523.41;5075348;28;20401;-45
2022/12/28 00:33:33;;;;;;;;;;;;;;;7.12;100.00;99538.38;5069888;28;20015;-44
2022/12/28 00:35:59;;;;;;;;;;;;;;;6.97;100.00;99517.19;5072636;28;19917;-44
2022/12/28 00:38:25;;;;;;;;;;;;;;;6.84;100.00;99512.19;5073717;28;19970;-43
2022/12/28 00:40:50;;;;;;;;;;;;;;;7.04;100.00;99514.53;5074259;28;19926;-44
2022/12/28 00:43:15;;;;;;;;;;;;;;;6.18;100.00;99481.97;5072996;28;19920;-44
2022/12/28 00:45:44;;;;;;;;;;;;;;;6.58;100.00;99509.81;5072862;28;19928;-44
2022/12/28 00:48:09;;;;;;;;;;;;;;;6.59;100.00;99496.19;5072306;28;20602;-44
2022/12/28 00:50:34;;;;;;;;;;;;;;;7.10;100.00;99496.56;5071849;28;19923;-44
2022/12/28 00:53:00;;;;;;;;;;;;;;;6.69;100.00;99477.31;5073612;28;19916;-44
2022/12/28 00:55:25;;;;;;;;;;;;;;;6.78;100.00;99480.66;5072427;28;19971;-43
2022/12/28 00:57:51;;;;;;;;;;;;;;;6.76;100.00;99472.16;5070913;28;19919;-44
2022/12/28 01:00:16;;;;;;;;;;;;;;;6.70;100.00;99458.53;5071133;28;19920;-44
2022/12/28 01:02:41;;;;;;;;;;;;;;;7.03;100.00;99487.25;5073156;28;19920;-44
2022/12/28 01:05:07;;;;;;;;;;;;;;;7.19;100.00;99492.22;5074717;28;19916;-44
2022/12/28 01:07:32;;;;;;;;;;;;;;;7.33;100.00;99469.84;5073360;28;20054;-44
2022/12/28 01:09:57;;;;;;;;;;;;;;;7.08;100.00;99453.91;5072359;28;19912;-44
2022/12/28 01:12:22;;;;;;;;;;;;;;;6.88;100.00;99447.25;5073040;28;19928;-44
2022/12/28 01:14:48;;;;;;;;;;;;;;;7.45;100.00;99467.13;5062930;28;19928;-43
2022/12/28 01:17:13;;;;;;;;;;;;;;;7.30;100.00;99454.53;5071293;28;19916;-44
2022/12/28 01:19:38;;;;;;;;;;;;;;;7.11;100.00;99444.47;5069525;28;20064;-43
2022/12/28 01:22:03;;;;;;;;;;;;;;;7.46;100.00;99450.91;5070506;28;20008;-44
2022/12/28 01:24:29;;;;;;;;;;;;;;;7.15;100.00;99450.41;5071115;28;19916;-43
2022/12/28 01:26:54;;;;;;;;;;;;;;;7.31;100.00;99431.44;5074116;28;19927;-43
2022/12/28 01:29:19;;;;;;;;;;;;;;;7.49;100.00;99450.88;5070066;28;19924;-44
2022/12/28 01:31:44;;;;;;;;;;;;;;;7.55;100.00;99449.97;5070208;28;19916;-43
2022/12/28 01:34:10;;;;;;;;;;;;;;;7.37;100.00;99438.22;5070114;28;20045;-44
2022/12/28 01:36:35;;;;;;;;;;;;;;;7.27;100.00;99441.72;5070736;28;19917;-44
2022/12/28 01:39:02;;;;;;;;;;;;;;;7.56;100.00;99446.50;5069843;28;19974;-44
2022/12/28 01:41:28;;;;;;;;;;;;;;;7.19;100.00;99448.69;5069126;28;19917;-44
2022/12/28 01:43:53;;;;;;;;;;;;;;;7.24;100.00;99452.03;5061427;28;19943;-44
2022/12/28 01:46:23;;;;;;;;;;;;;;;7.41;100.00;99441.56;5071291;28;19928;-44
2022/12/28 01:48:53;;;;;;;;;;;;;;;7.28;100.00;99461.38;5069837;28;20404;-44
2022/12/28 01:51:19;;;;;;;;;;;;;;;7.34;100.00;99463.84;5070434;28;19931;-43
2022/12/28 01:53:44;;;;;;;;;;;;;;;7.35;100.00;99468.13;5071199;28;19916;-43
2022/12/28 01:56:09;;;;;;;;;;;;;;;7.46;100.00;99491.91;5068821;28;19945;-43
2022/12/28 01:58:35;;;;;;;;;;;;;;;7.36;100.00;99471.53;5068952;28;20536;-43
2022/12/28 02:01:00;;;;;;;;;;;;;;;7.57;100.00;99475.56;5070079;28;20351;-43
2022/12/28 02:03:25;;;;;;;;;;;;;;;7.50;100.00;99462.84;5063759;28;19916;-43
2022/12/28 02:05:51;;;;;;;;;;;;;;;7.46;100.00;99456.03;5071684;28;19916;-43
2022/12/28 02:08:36;;;;;;;;;;;;;;;7.20;100.00;99442.69;5069032;28;19924;-43
2022/12/28 02:11:01;;;;;;;;;;;;;;;7.12;100.00;99435.94;5069945;28;19935;-43
2022/12/28 02:13:26;;;;;;;;;;;;;;;7.41;100.00;99446.69;5068514;28;19943;-43
2022/12/28 02:15:52;;;;;;;;;;;;;;;7.14;100.00;99443.59;5062489;28;19963;-43
2022/12/28 02:18:18;;;;;;;;;;;;;;;7.01;100.00;99436.91;5071105;28;19967;-43
2022/12/28 02:21:02;;;;;;;;;;;;;;;7.71;100.00;99455.75;5071203;28;19917;-43
2022/12/28 02:23:33;;;;;;;;;;;;;;;7.61;100.00;99446.47;5069881;28;19920;-43
2022/12/28 02:26:16;;;;;;;;;;;;;;;7.24;100.00;99427.25;5071241;28;19931;-43
2022/12/28 02:28:51;;;;;;;;;;;;;;;7.37;100.00;99425.41;5070622;28;19935;-43
2022/12/28 02:31:30;;;;;;;;;;;;;;;7.31;100.00;99436.56;5070749;28;20035;-43
2022/12/28 02:34:08;;;;;;;;;;;;;;;7.03;100.00;99430.91;5067021;28;20370;-43
2022/12/28 02:36:36;;;;;;;;;;;;;;;7.59;100.00;99450.75;5067749;28;19920;-44
2022/12/28 02:39:05;;;;;;;;;;;;;;;7.44;100.00;99432.16;5069614;28;19920;-43
2022/12/28 02:41:31;;;;;;;;;;;;;;;7.25;100.00;99411.03;5068586;28;19920;-43
2022/12/28 02:43:57;;;;;;;;;;;;;;;7.42;100.00;99421.06;5068019;28;20790;-43
2022/12/28 02:52:22;;;;;;;;;;;;;;;7.47;100.00;99393.66;5071104;28;19978;-43
2022/12/28 02:57:49;;;;;;;;;;;;;;;7.67;100.00;99402.81;5069116;28;19950;-43
2022/12/28 03:00:14;;;;;;;;;;;;;;;7.45;100.00;99380.00;5068931;28;19925;-43
2022/12/28 03:02:43;;;;;;;;;;;;;;;7.51;100.00;99371.41;5066101;28;19920;-43
2022/12/28 03:05:11;;;;;;;;;;;;;;;7.68;100.00;99371.16;5072285;28;20418;-43
2022/12/28 03:10:35;;;;;;;;;;;;;;;7.86;100.00;99373.47;5069807;28;19970;-43
2022/12/28 03:13:03;;;;;;;;;;;;;;;7.24;100.00;99347.84;5066931;28;19927;-43
2022/12/28 03:15:29;;;;;;;;;;;;;;;7.46;100.00;99362.94;5069758;28;19928;-43
2022/12/28 03:31:54;;;;;;;;;;;;;;;7.51;100.00;99366.28;5070324;28;19946;-43
2022/12/28 03:34:20;;;;;;;;;;;;;;;7.52;100.00;99363.69;5060206;28;19916;-43
2022/12/28 03:37:04;;;;;;;;;;;;;;;7.59;100.00;99371.28;5069233;28;19923;-43
2022/12/28 03:39:29;;;;;;;;;;;;;;;7.69;100.00;99362.63;5070249;28;19917;-43
2022/12/28 03:44:42;;;;;;;;;;;;;;;7.79;100.00;99353.91;5069125;28;20323;-43
2022/12/28 03:47:08;;;;;;;;;;;;;;;7.51;100.00;99326.13;5070394;28;20023;-43
2022/12/28 03:49:33;;;;;;;;;;;;;;;7.49;100.00;99322.72;5070379;28;20588;-43
2022/12/28 03:51:59;;;;;;;;;;;;;;;7.70;100.00;99339.50;5069811;28;19924;-43
2022/12/28 03:54:24;;;;;;;;;;;;;;;7.86;100.00;99335.00;5071389;28;20523;-43
2022/12/28 03:56:50;;;;;;;;;;;;;;;7.80;100.00;99317.16;5068320;28;20352;-43
2022/12/28 03:59:15;;;;;;;;;;;;;;;7.71;100.00;99307.91;5070855;28;19956;-43
2022/12/28 04:01:40;;;;;;;;;;;;;;;7.82;100.00;99310.25;5068662;28;20062;-43
2022/12/28 04:04:06;;;;;;;;;;;;;;;7.68;100.00;99304.53;5067143;28;19920;-43
2022/12/28 04:06:31;;;;;;;;;;;;;;;7.93;100.00;99308.38;5069430;28;20546;-43
2022/12/28 04:08:56;;;;;;;;;;;;;;;7.65;100.00;99294.31;5068517;28;19916;-43
2022/12/28 04:11:21;;;;;;;;;;;;;;;7.58;100.00;99292.72;5069508;28;19923;-43
2022/12/28 04:13:47;;;;;;;;;;;;;;;7.73;100.00;99307.84;5068478;28;19967;-43
2022/12/28 04:16:12;;;;;;;;;;;;;;;7.50;100.00;99298.81;5070002;28;19928;-43
2022/12/28 04:18:38;;;;;;;;;;;;;;;7.77;100.00;99324.88;5068890;28;19956;-43
2022/12/28 04:21:03;;;;;;;;;;;;;;;7.78;100.00;99303.53;5069641;28;20002;-43
2022/12/28 04:23:29;;;;;;;;;;;;;;;7.89;100.00;99301.63;5071078;28;19920;-43
2022/12/28 04:25:55;;;;;;;;;;;;;;;7.99;100.00;99306.59;5071279;28;19947;-43
2022/12/28 04:28:20;;;;;;;;;;;;;;;8.04;100.00;99289.41;5071913;28;19924;-43
2022/12/28 04:30:45;;;;;;;;;;;;;;;7.91;100.00;99292.19;5073855;28;19916;-43
2022/12/28 04:33:10;;;;;;;;;;;;;;;8.27;100.00;99292.41;5073759;28;19919;-43
2022/12/28 04:35:36;;;;;;;;;;;;;;;8.02;100.00;99280.91;5073537;28;19912;-43
2022/12/28 04:38:01;;;;;;;;;;;;;;;7.97;100.00;99288.66;5072291;28;19939;-43
2022/12/28 04:40:26;;;;;;;;;;;;;;;7.83;100.00;99286.34;5073108;28;19916;-43
2022/12/28 04:42:51;;;;;;;;;;;;;;;8.20;100.00;99290.84;5072273;28;19916;-43
2022/12/28 04:45:16;;;;;;;;;;;;;;;8.16;100.00;99282.38;5072754;28;20010;-43
2022/12/28 04:47:42;;;;;;;;;;;;;;;7.98;100.00;99280.09;5072493;28;19963;-43
2022/12/28 04:50:07;;;;;;;;;;;;;;;8.03;100.00;99272.31;5073291;28;20334;-43
2022/12/28 04:52:32;;;;;;;;;;;;;;;7.85;100.00;99269.22;5071595;28;19920;-43
2022/12/28 04:54:58;;;;;;;;;;;;;;;7.90;100.00;99282.78;5072608;28;19920;-43
2022/12/28 04:57:23;;;;;;;;;;;;;;;8.29;100.00;99284.69;5072102;28;19916;-43
2022/12/28 04:59:48;;;;;;;;;;;;;;;8.12;100.00;99277.31;5072178;28;20367;-43
2022/12/28 05:02:13;;;;;;;;;;;;;;;8.22;100.00;99267.72;5070401;28;19927;-43
2022/12/28 05:04:39;;;;;;;;;;;;;;;8.18;100.00;99278.03;5073904;28;19912;-43
2022/12/28 05:07:04;;;;;;;;;;;;;;;8.30;100.00;99271.84;5073982;28;19912;-43
2022/12/28 05:09:29;;;;;;;;;;;;;;;8.23;100.00;99275.38;5070838;28;19920;-43
2022/12/28 05:11:54;;;;;;;;;;;;;;;8.26;100.00;99270.22;5073140;28;19938;-43
2022/12/28 05:14:19;;;;;;;;;;;;;;;8.25;100.00;99273.63;5071852;28;20133;-43
2022/12/28 05:16:45;;;;;;;;;;;;;;;8.17;100.00;99266.09;5074043;28;19944;-43
2022/12/28 05:19:10;;;;;;;;;;;;;;;8.24;100.00;99273.69;5070759;28;19916;-43
2022/12/28 05:21:35;;;;;;;;;;;;;;;8.40;100.00;99281.94;5070848;28;19920;-43
2022/12/28 05:24:00;;;;;;;;;;;;;;;8.38;100.00;99267.41;5073428;28;21203;-43
2022/12/28 05:26:27;;;;;;;;;;;;;;;8.25;100.00;99265.09;5070928;28;20436;-43
2022/12/28 05:28:53;;;;;;;;;;;;;;;8.06;100.00;99252.59;5074153;28;19932;-44
2022/12/28 05:31:19;;;;;;;;;;;;;;;8.26;100.00;99264.25;5071131;28;19942;-43
2022/12/28 05:33:46;;;;;;;;;;;;;;;8.43;100.00;99271.66;5071790;28;19982;-44
2022/12/28 05:36:12;;;;;;;;;;;;;;;8.38;100.00;99264.84;5074284;28;19920;-44
2022/12/28 05:38:38;;;;;;;;;;;;;;;8.47;100.00;99276.69;5071911;28;20027;-43
2022/12/28 05:41:07;;;;;;;;;;;;;;;8.50;100.00;99276.63;5074285;28;20015;-44
2022/12/28 05:43:32;;;;;;;;;;;;;;;8.53;100.00;99268.00;5073115;28;19932;-44
2022/12/28 05:46:02;;;;;;;;;;;;;;;8.40;100.00;99254.59;5073407;28;19920;-44
2022/12/28 05:48:29;;;;;;;;;;;;;;;8.52;100.00;99259.47;5073125;28;19931;-44
2022/12/28 05:50:57;;;;;;;;;;;;;;;8.48;100.00;99250.13;5073765;28;19960;-44
2022/12/28 05:53:22;;;;;;;;;;;;;;;8.56;100.00;99255.97;5071711;28;20297;-44
2022/12/28 05:55:47;;;;;;;;;;;;;;;8.20;100.00;99256.66;5072667;28;19920;-43
2022/12/28 05:58:12;;;;;;;;;;;;;;;8.81;100.00;99288.03;5070957;28;19916;-43
2022/12/28 06:00:37;;;;;;;;;;;;;;;8.43;100.00;99263.94;5072124;28;20888;-43
2022/12/28 06:03:03;;;;;;;;;;;;;;;8.50;100.00;99275.78;5069260;28;20466;-43
2022/12/28 06:05:28;;;;;;;;;;;;;;;8.75;100.00;99278.72;5071834;28;20410;-43
2022/12/28 06:07:53;;;;;;;;;;;;;;;8.62;100.00;99273.00;5072981;28;20339;-43
2022/12/28 06:10:18;;;;;;;;;;;;;;;8.94;100.00;99285.19;5071369;28;20312;-43
2022/12/28 06:12:43;;;;;;;;;;;;;;;8.78;100.00;99256.41;5072372;28;19923;-43
2022/12/28 06:15:09;;;;;;;;;;;;;;;8.69;100.00;99248.00;5071991;28;19912;-43
2022/12/28 06:17:34;;;;;;;;;;;;;;;8.66;100.00;99250.66;5072506;28;19916;-43
2022/12/28 06:19:59;;;;;;;;;;;;;;;8.69;100.00;99258.28;5068532;28;19920;-43
2022/12/28 06:22:25;;;;;;;;;;;;;;;8.92;100.00;99265.53;5070984;28;20005;-43
2022/12/28 06:24:50;;;;;;;;;;;;;;;8.71;100.00;99266.81;5071823;28;20057;-43
2022/12/28 06:27:15;;;;;;;;;;;;;;;8.99;100.00;99277.38;5071128;28;20011;-43
2022/12/28 06:29:40;;;;;;;;;;;;;;;8.72;100.00;99259.09;5073013;28;19958;-43
2022/12/28 06:32:05;;;;;;;;;;;;;;;8.78;100.00;99258.09;5071703;28;19920;-43
2022/12/28 06:34:31;;;;;;;;;;;;;;;8.48;100.00;99260.41;5070720;28;19924;-43
2022/12/28 06:36:56;;;;;;;;;;;;;;;8.74;100.00;99272.75;5069802;28;19924;-43
2022/12/28 06:39:22;;;;;;;;;;;;;;;8.77;100.00;99267.53;5070660;28;19916;-43
2022/12/28 06:41:47;;;;;;;;;;;;;;;8.78;100.00;99266.66;5072128;28;19917;-43
2022/12/28 06:44:12;;;;;;;;;;;;;;;8.68;100.00;99267.72;5071194;28;20418;-43
2022/12/28 06:46:38;;;;;;;;;;;;;;;9.02;100.00;99297.00;5070862;28;19979;-43
2022/12/28 06:49:03;;;;;;;;;;;;;;;8.64;100.00;99275.50;5068509;28;19921;-43
2022/12/28 06:51:29;;;;;;;;;;;;;;;9.00;100.00;99284.19;5069566;28;19920;-43
2022/12/28 06:53:54;;;;;;;;;;;;;;;8.75;100.00;99276.97;5068834;28;19920;-43
2022/12/28 06:56:21;;;;;;;;;;;;;;;9.00;100.00;99285.03;5068870;28;20412;-43
2022/12/28 06:58:47;;;;;;;;;;;;;;;8.83;100.00;99281.16;5068530;28;19925;-43
2022/12/28 07:01:19;;;;;;;;;;;;;;;9.09;100.00;99281.44;5070815;28;20418;-43
2022/12/28 07:03:45;;;;;;;;;;;;;;;9.04;100.00;99282.41;5070050;28;19942;-43
2022/12/28 07:06:11;;;;;;;;;;;;;;;8.86;100.00;99286.22;5070530;28;20573;-43
2022/12/28 07:08:36;;;;;;;;;;;;;;;8.95;100.00;99296.28;5067486;28;19969;-43
2022/12/28 07:11:05;;;;;;;;;;;;;;;8.78;100.00;99276.94;5070927;28;19916;-43
2022/12/28 07:13:31;;;;;;;;;;;;;;;8.89;100.00;99292.09;5067836;28;19921;-43
2022/12/28 07:15:56;;;;;;;;;;;;;;;8.89;100.00;99286.97;5070315;28;19923;-43
2022/12/28 07:18:21;;;;;;;;;;;;;;;8.66;100.00;99287.44;5068989;28;19954;-43
2022/12/28 07:20:46;;;;;;;;;;;;;;;8.79;100.00;99301.72;5070888;28;19916;-43
2022/12/28 07:23:12;;;;;;;;;;;;;;;8.86;99.16;99301.63;5070179;28;19949;-43
2022/12/28 07:25:37;;;;;;;;;;;;;;;8.99;98.37;99308.19;5070604;28;19927;-43
2022/12/28 07:28:02;;;;;;;;;;;;;;;8.95;96.13;99312.53;5069222;28;19965;-43
2022/12/28 07:30:27;;;;;;;;;;;;;;;8.94;94.58;99321.13;5068479;28;20453;-43
2022/12/28 07:32:53;;;;;;;;;;;;;;;8.59;93.84;99308.97;5068960;28;19939;-43
2022/12/28 07:35:18;;;;;;;;;;;;;;;9.00;87.43;99335.56;5072125;28;20658;-43
2022/12/28 07:37:44;;;;;;;;;;;;;;;8.62;91.16;99324.34;5068894;28;19942;-43
2022/12/28 07:40:09;;;;;;;;;;;;;;;9.01;86.23;99347.56;5069121;28;20020;-43
2022/12/28 07:42:34;;;;;;;;;;;;;;;9.16;86.69;99362.63;5068791;28;20071;-43
2022/12/28 07:45:00;;;;;;;;;;;;;;;8.86;88.41;99342.72;5069385;28;19931;-43
2022/12/28 07:47:25;;;;;;;;;;;;;;;8.79;86.53;99340.25;5071816;28;19966;-44
2022/12/28 07:49:50;;;;;;;;;;;;;;;9.05;85.27;99364.56;5070430;28;20003;-43
2022/12/28 07:52:15;;;;;;;;;;;;;;;8.95;86.70;99357.94;5068655;28;19927;-43
2022/12/28 07:54:41;;;;;;;;;;;;;;;9.06;85.85;99361.13;5069835;28;19926;-45
2022/12/28 07:57:06;;;;;;;;;;;;;;;8.76;87.60;99340.31;5071571;28;20006;-41
2022/12/28 07:59:31;;;;;;;;;;;;;;;8.70;85.49;99363.53;5071807;28;19947;-40
2022/12/28 08:01:56;;;;;;;;;;;;;;;9.05;81.55;99381.72;5075187;28;19970;-40
2022/12/28 08:04:21;;;;;;;;;;;;;;;9.01;83.06;99373.25;5072205;28;19920;-40
2022/12/28 08:06:47;;;;;;;;;;;;;;;9.15;84.23;99381.50;5075493;28;19926;-40
2022/12/28 08:09:13;;;;;;;;;;;;;;;9.24;85.44;99369.34;5072718;28;20031;-40
2022/12/28 08:11:42;;;;;;;;;;;;;;;9.10;86.33;99357.63;5073155;28;19920;-40
2022/12/28 08:14:07;;;;;;;;;;;;;;;9.06;87.22;99352.59;5071978;28;19927;-40
2022/12/28 08:16:34;;;;;;;;;;;;;;;9.16;87.01;99357.50;5071523;28;19912;-40
2022/12/28 08:18:59;;;;;;;;;;;;;;;9.08;86.87;99355.97;5073378;28;20001;-40
2022/12/28 08:21:27;;;;;;;;;;;;;;;9.04;86.14;99362.06;5065249;28;19925;-40
2022/12/28 08:23:53;;;;;;;;;;;;;;;9.19;86.64;99360.03;5072916;28;20023;-40
2022/12/28 08:26:19;;;;;;;;;;;;;;;9.05;88.74;99354.28;5072870;28;20300;-40
2022/12/28 08:28:45;;;;;;;;;;;;;;;9.25;88.87;99356.47;5070353;28;19931;-40
2022/12/28 08:31:11;;;;;;;;;;;;;;;9.24;88.95;99351.34;5072252;28;19923;-40
2022/12/28 08:33:37;;;;;;;;;;;;;;;9.26;88.79;99349.59;5071943;28;19923;-40
2022/12/28 08:36:05;;;;;;;;;;;;;;;9.53;87.77;99354.13;5073190;28;19931;-41
2022/12/28 08:38:31;;;;;;;;;;;;;;;9.32;92.14;99341.75;5072189;28;19916;-41
2022/12/28 08:40:57;;;;;;;;;;;;;;;9.67;93.65;99337.56;5072068;28;19990;-41
2022/12/28 08:43:22;;;;;;;;;;;;;;;9.73;94.37;99327.13;5073178;28;20062;-41
2022/12/28 08:46:00;;;;;;;;;;;;;;;9.50;96.63;99312.25;5071744;28;19920;-41
2022/12/28 08:48:26;;;;;;;;;;;;;;;9.50;96.43;99300.22;5071981;28;20297;-41
2022/12/28 08:50:51;;;;;;;;;;;;;;;9.54;97.38;99307.00;5071206;28;19920;-41
2022/12/28 08:53:16;;;;;;;;;;;;;;;9.63;98.08;99309.34;5071886;28;20369;-41
2022/12/28 08:55:41;;;;;;;;;;;;;;;9.70;98.43;99301.50;5072122;28;19916;-41
2022/12/28 08:58:07;;;;;;;;;;;;;;;9.62;99.70;99288.81;5070499;28;19916;-41
2022/12/28 09:00:32;;;;;;;;;;;;;;;9.34;100.00;99294.59;5071902;28;19964;-41
2022/12/28 09:02:58;;;;;;;;;;;;;;;9.54;98.91;99296.72;5073910;28;19926;-41
2022/12/28 09:05:23;;;;;;;;;;;;;;;9.75;99.07;99304.81;5071619;28;20007;-41
2022/12/28 09:07:49;;;;;;;;;;;;;;;9.89;100.00;99296.75;5072279;28;19924;-41
2022/12/28 09:10:14;;;;;;;;;;;;;;;9.78;100.00;99284.16;5071906;28;19920;-41
2022/12/28 09:12:40;;;;;;;;;;;;;;;9.99;100.00;99278.50;5072627;28;19931;-41
2022/12/28 09:15:05;;;;;;;;;;;;;;;9.86;100.00;99266.81;5071702;28;19920;-41
2022/12/28 09:17:30;;;;;;;;;;;;;;;9.94;100.00;99264.88;5070666;28;19920;-41
2022/12/28 09:19:56;;;;;;;;;;;;;;;9.81;100.00;99260.94;5073885;28;19964;-41
2022/12/28 09:22:21;;;;;;;;;;;;;;;10.00;100.00;99269.03;5070665;28;19920;-41
2022/12/28 09:24:46;;;;;;;;;;;;;;;9.72;100.00;99263.75;5070962;28;19920;-41
2022/12/28 09:27:11;;;;;;;;;;;;;;;10.07;100.00;99274.88;5070888;28;19916;-41
2022/12/28 09:29:37;;;;;;;;;;;;;;;10.14;100.00;99271.25;5069136;28;19924;-41
2022/12/28 09:32:02;;;;;;;;;;;;;;;10.04;100.00;99256.06;5072442;28;19977;-41
2022/12/28 09:34:27;;;;;;;;;;;;;;;10.20;100.00;99250.50;5071803;28;19925;-41
2022/12/28 09:36:52;;;;;;;;;;;;;;;9.77;100.00;99236.19;5071066;28;19982;-41
2022/12/28 09:39:19;;;;;;;;;;;;;;;9.92;100.00;99256.38;5067529;28;20206;-41
2022/12/28 09:41:47;;;;;;;;;;;;;;;9.98;100.00;99253.63;5068786;28;20007;-41
2022/12/28 09:44:15;;;;;;;;;;;;;;;10.16;100.00;99269.50;5071119;28;19921;-41
2022/12/28 09:46:46;;;;;;;;;;;;;;;10.05;100.00;99251.75;5070913;28;19920;-41
2022/12/28 09:49:16;;;;;;;;;;;;;;;9.95;100.00;99258.03;5070236;28;20891;-41
2022/12/28 09:51:46;;;;;;;;;;;;;;;10.16;100.00;99259.19;5071873;28;19931;-41
2022/12/28 09:54:11;;;;;;;;;;;;;;;10.11;100.00;99243.88;5069492;28;20296;-41
2022/12/28 09:56:37;;;;;;;;;;;;;;;9.90;100.00;99244.41;5071767;28;19920;-41
2022/12/28 09:59:03;;;;;;;;;;;;;;;10.08;100.00;99241.38;5071192;28;19926;-41
2022/12/28 10:01:28;;;;;;;;;;;;;;;10.43;100.00;99245.59;5071602;28;19924;-41
2022/12/28 10:03:53;;;;;;;;;;;;;;;10.40;100.00;99243.13;5068338;28;19923;-41
2022/12/28 10:06:20;;;;;;;;;;;;;;;10.39;100.00;99230.28;5069415;28;19968;-41
2022/12/28 10:08:46;;;;;;;;;;;;;;;10.44;100.00;99224.13;5071776;28;20424;-41
2022/12/28 10:11:19;;;;;;;;;;;;;;;10.51;100.00;99208.50;5070105;28;20360;-41
2022/12/28 10:13:45;;;;;;;;;;;;;;;10.30;100.00;99200.50;5069627;28;19970;-41
2022/12/28 10:16:19;;;;;;;;;;;;;;;10.17;100.00;99205.13;5069394;28;19920;-41
2022/12/28 10:18:45;;;;;;;;;;;;;;;10.22;100.00;99212.72;5070232;28;19965;-41
2022/12/28 10:21:10;;;;;;;;;;;;;;;10.43;100.00;99203.56;5069832;28;19924;-41
2022/12/28 10:23:35;;;;;;;;;;;;;;;10.48;100.00;99208.59;5069017;28;19951;-42
2022/12/28 10:26:02;;;;;;;;;;;;;;;10.44;100.00;99212.97;5070215;28;19916;-41
2022/12/28 10:28:30;;;;;;;;;;;;;;;10.39;100.00;99207.97;5069336;28;20645;-41
2022/12/28 10:31:05;;;;;;;;;;;;;;;10.39;100.00;99201.97;5068332;28;19980;-42
2022/12/28 10:33:31;;;;;;;;;;;;;;;10.78;100.00;99197.41;5069949;28;20014;-42
2022/12/28 10:35:56;;;;;;;;;;;;;;;10.79;100.00;99188.78;5071500;28;20104;-41
2022/12/28 10:38:22;;;;;;;;;;;;;;;10.71;100.00;99180.44;5067704;28;19931;-42
2022/12/28 10:40:58;;;;;;;;;;;;;;;10.79;100.00;99181.06;5067665;28;19928;-42
2022/12/28 10:43:23;;;;;;;;;;;;;;;10.67;100.00;99153.94;5066427;28;19920;-41
2022/12/28 10:45:49;;;;;;;;;;;;;;;10.81;100.00;99161.25;5064316;28;20389;-41
2022/12/28 10:48:18;;;;;;;;;;;;;;;10.61;100.00;99153.28;5067838;28;19981;-41
2022/12/28 10:50:47;;;;;;;;;;;;;;;10.38;100.00;99141.91;5065102;28;21350;-42
2022/12/28 10:53:17;;;;;;;;;;;;;;;10.27;100.00;99160.22;5064545;28;19923;-41
2022/12/28 10:55:42;;;;;;;;;;;;;;;10.32;100.00;99167.84;5067769;28;19927;-42
2022/12/28 10:58:20;;;;;;;;;;;;;;;10.88;100.00;99177.38;5066215;28;19916;-42
2022/12/28 11:00:53;;;;;;;;;;;;;;;10.79;100.00;99167.34;5068211;28;19996;-42
2022/12/28 11:03:20;;;;;;;;;;;;;;;10.84;100.00;99156.00;5068269;28;19942;-42
2022/12/28 11:05:46;;;;;;;;;;;;;;;10.74;100.00;99134.00;5066802;28;19916;-42
2022/12/28 11:08:12;;;;;;;;;;;;;;;10.97;100.00;99140.16;5066522;28;20316;-41
2022/12/28 11:10:39;;;;;;;;;;;;;;;10.76;100.00;99137.34;5067292;28;19952;-42
2022/12/28 11:13:06;;;;;;;;;;;;;;;10.85;100.00;99123.34;5069542;28;19952;-41
2022/12/28 11:15:31;;;;;;;;;;;;;;;10.87;100.00;99124.97;5066576;28;19924;-41
2022/12/28 11:17:57;;;;;;;;;;;;;;;10.64;100.00;99106.81;5060306;28;19969;-41
2022/12/28 11:20:24;;;;;;;;;;;;;;;10.92;100.00;99111.13;5064064;28;19916;-41
2022/12/28 11:22:49;;;;;;;;;;;;;;;10.62;100.00;99100.88;5069377;28;19920;-41
2022/12/28 11:25:18;;;;;;;;;;;;;;;11.02;100.00;99112.53;5067291;28;19978;-41
2022/12/28 11:27:44;;;;;;;;;;;;;;;10.92;100.00;99103.38;5067381;28;20025;-41
2022/12/28 11:30:16;;;;;;;;;;;;;;;11.29;100.00;99116.78;5067401;28;19954;-41
2022/12/28 11:32:59;;;;;;;;;;;;;;;11.06;100.00;99103.78;5059283;28;19916;-41
2022/12/28 11:35:29;;;;;;;;;;;;;;;11.25;100.00;99088.56;5071962;28;19920;-41
2022/12/28 11:37:56;;;;;;;;;;;;;;;11.09;100.00;99075.34;5071509;28;19919;-41
2022/12/28 11:40:39;;;;;;;;;;;;;;;11.12;100.00;99062.34;5070312;28;19921;-41
2022/12/28 11:43:04;;;;;;;;;;;;;;;10.89;100.00;99045.91;5070951;28;20015;-41
2022/12/28 11:45:48;;;;;;;;;;;;;;;10.53;100.00;99044.50;5069925;28;20955;-41
2022/12/28 11:48:32;;;;;;;;;;;;;;;10.84;100.00;99062.41;5070562;28;19925;-41
2022/12/28 11:51:02;;;;;;;;;;;;;;;10.92;100.00;99057.00;5070658;28;19920;-41
2022/12/28 11:53:30;;;;;;;;;;;;;;;11.13;100.00;99064.06;5072982;28;19916;-42
2022/12/28 11:55:55;;;;;;;;;;;;;;;11.56;100.00;99075.44;5069835;28;19924;-41
2022/12/28 11:58:32;;;;;;;;;;;;;;;11.21;100.00;99051.72;5068484;28;19920;-41
2022/12/28 12:00:58;;;;;;;;;;;;;;;11.70;100.00;99039.72;5072431;28;20369;-41
2022/12/28 12:03:42;;;;;;;;;;;;;;;11.45;100.00;99034.59;5070850;28;19943;-41
2022/12/28 12:06:08;;;;;;;;;;;;;;;11.35;100.00;99029.78;5072266;28;19919;-41
2022/12/28 12:08:37;;;;;;;;;;;;;;;11.41;100.00;99029.59;5072826;28;19925;-41
2022/12/28 12:11:17;;;;;;;;;;;;;;;11.72;100.00;99022.44;5073151;28;19924;-41
2022/12/28 12:13:43;;;;;;;;;;;;;;;11.66;100.00;99012.34;5073306;28;20583;-41
2022/12/28 12:16:27;;;;;;;;;;;;;;;11.91;100.00;98996.00;5075084;28;19928;-41
2022/12/28 12:18:54;;;;;;;;;;;;;;;11.88;100.00;98980.59;5072265;28;19924;-41
2022/12/28 12:21:33;;;;;;;;;;;;;;;11.92;100.00;98961.53;5071172;28;19978;-41
2022/12/28 12:24:05;;;;;;;;;;;;;;;11.32;100.00;98955.16;5070297;28;20427;-41
2022/12/28 12:26:37;;;;;;;;;;;;;;;11.65;100.00;98964.22;5070919;28;19920;-41
2022/12/28 12:29:15;;;;;;;;;;;;;;;11.88;100.00;98966.00;5070824;28;20011;-41
2022/12/28 12:31:42;;;;;;;;;;;;;;;11.22;100.00;98952.91;5069557;28;19928;-41
2022/12/28 12:34:16;;;;;;;;;;;;;;;11.77;100.00;98962.06;5071840;28;19945;-41
2022/12/28 12:36:56;;;;;;;;;;;;;;;11.23;100.00;98962.28;5070735;28;19920;-41
2022/12/28 12:39:24;;;;;;;;;;;;;;;11.95;100.00;98973.47;5069374;28;19924;-41
2022/12/28 12:41:49;;;;;;;;;;;;;;;11.41;100.00;98960.81;5074075;28;20686;-41
2022/12/28 12:44:34;;;;;;;;;;;;;;;11.07;100.00;98956.00;5071099;28;20011;-41
2022/12/28 12:47:06;;;;;;;;;;;;;;;11.47;100.00;98968.31;5071877;28;19920;-41
2022/12/28 12:49:34;;;;;;;;;;;;;;;11.19;100.00;98959.88;5071243;28;19986;-41
2022/12/28 12:52:11;;;;;;;;;;;;;;;11.54;100.00;98968.09;5070806;28;20021;-41
2022/12/28 12:55:05;;;;;;;;;;;;;;;11.06;100.00;98959.47;5071815;28;19923;-41
2022/12/28 12:57:39;;;;;;;;;;;;;;;10.73;100.00;98962.28;5057692;28;19920;-41
2022/12/28 13:00:11;;;;;;;;;;;;;;;11.28;100.00;98983.59;5070883;28;20472;-41
2022/12/28 13:02:55;;;;;;;;;;;;;;;11.13;100.00;98986.72;5073871;28;19916;-41
2022/12/28 13:05:21;;;;;;;;;;;;;;;11.08;100.00;98997.19;5073453;28;19922;-41
2022/12/28 13:07:47;;;;;;;;;;;;;;;11.08;100.00;98993.75;5069949;28;19924;-41
2022/12/28 13:10:17;;;;;;;;;;;;;;;11.36;100.00;98985.06;5070721;28;19920;-41
2022/12/28 13:12:42;;;;;;;;;;;;;;;10.98;100.00;98972.63;5072261;28;19973;-41
2022/12/28 13:15:13;;;;;;;;;;;;;;;11.32;100.00;98986.09;5072242;28;19977;-41